Time;durP1;ratioP1;P1;durP2;ratioP2;P2;SDS_P1;SDS_P2;PMS_P1;PMS_P2;Temp;Humidity;BMP_temperature;BMP_pressure;BME280_temperature;BME280_humidity;BME280_pressure;Samples;Min_cycle;Max_cycle;Signal;HPM_P1;HPM_P2
2023/04/13 00:00:45;;;;;;;16.90;7.55;;;5.20;99.90;;;5.99;100.00;99140.00;5056509;28;20097;-78
2023/04/13 00:03:11;;;;;;;18.35;8.80;;;5.20;99.90;;;5.96;100.00;99134.19;5057120;28;20052;-78
2023/04/13 00:05:39;;;;;;;17.00;8.02;;;5.20;99.90;;;5.86;100.00;99140.09;5067658;28;20577;-78
2023/04/13 00:08:06;;;;;;;;;;;5.30;99.90;;;5.76;100.00;99143.31;5083884;28;20424;-78
2023/04/13 00:10:35;;;;;;;15.15;7.63;;;5.30;99.90;;;5.87;100.00;99141.78;5059812;28;19924;-78
2023/04/13 00:13:02;;;;;;;17.73;8.10;;;5.30;99.90;;;5.72;100.00;99117.75;5068838;28;20036;-78
2023/04/13 00:15:28;;;;;;;17.75;8.60;;;5.30;99.90;;;5.82;100.00;99126.19;5056440;28;20036;-77
2023/04/13 00:17:53;;;;;;;19.92;9.18;;;5.20;99.90;;;5.85;100.00;99117.66;5067462;28;20546;-78
2023/04/13 00:20:19;;;;;;;23.35;8.93;;;5.30;99.90;;;5.75;100.00;99120.00;5081064;28;20041;-77
2023/04/13 00:22:46;;;;;;;18.58;8.30;;;5.30;99.90;;;5.82;100.00;99128.09;5052136;28;20505;-78
2023/04/13 00:25:14;;;;;;;17.77;8.60;;;5.20;99.90;;;5.76;100.00;99119.81;5067263;28;20492;-78
2023/04/13 00:27:42;;;;;;;17.88;9.50;;;5.20;99.90;;;5.67;100.00;99109.47;5061049;28;20123;-78
2023/04/13 00:30:15;;;;;;;;;;;5.10;99.90;;;5.72;100.00;99129.41;5054441;28;20068;-78
2023/04/13 00:32:43;;;;;;;18.27;8.35;;;5.10;99.90;;;5.74;100.00;99121.06;5061124;28;19923;-78
2023/04/13 00:35:10;;;;;;;;;;;5.10;99.90;;;5.79;100.00;99117.69;5078669;28;20028;-78
2023/04/13 00:37:37;;;;;;;16.92;8.43;;;5.20;99.90;;;5.80;100.00;99114.75;5082593;28;19917;-78
2023/04/13 00:40:06;;;;;;;22.00;9.65;;;5.20;99.90;;;5.74;100.00;99104.84;5064668;28;20040;-78
2023/04/13 00:42:35;;;;;;;19.80;9.15;;;5.30;99.90;;;5.69;100.00;99094.66;5049731;28;20060;-77
2023/04/13 00:45:01;;;;;;;21.13;9.57;;;5.40;99.90;;;5.82;100.00;99109.13;5057950;28;20063;-77
2023/04/13 00:47:34;;;;;;;17.85;8.73;;;5.40;99.90;;;5.71;100.00;99106.13;5060603;28;20040;-78
2023/04/13 00:50:02;;;;;;;18.83;9.48;;;5.40;99.90;;;5.74;100.00;99115.66;5068621;28;20498;-78
2023/04/13 00:52:28;;;;;;;19.77;9.55;;;5.40;99.90;;;5.88;100.00;99133.44;5066115;28;20111;-77
2023/04/13 00:55:01;;;;;;;18.08;9.35;;;5.40;99.90;;;5.75;100.00;99107.31;5057139;28;20034;-77
2023/04/13 00:57:31;;;;;;;16.55;8.82;;;5.40;99.90;;;5.62;100.00;99099.31;5068552;28;20097;-78
2023/04/13 01:00:05;;;;;;;17.80;9.10;;;5.30;99.90;;;5.77;100.00;99123.31;5065143;28;20110;-79
2023/04/13 01:02:35;;;;;;;19.23;8.65;;;5.30;99.90;;;5.76;100.00;99125.22;5053169;28;20499;-78
2023/04/13 01:05:05;;;;;;;17.30;9.73;;;5.30;99.90;;;5.66;100.00;99105.94;5065401;28;20115;-77
2023/04/13 01:07:37;;;;;;;18.73;9.38;;;5.20;99.90;;;5.69;100.00;99123.63;5077485;28;20047;-78
2023/04/13 01:10:15;;;;;;;18.35;8.85;;;5.10;99.90;;;5.41;100.00;99133.81;5044561;28;20032;-78
2023/04/13 01:13:16;;;;;;;17.33;8.65;;;5.00;99.90;;;5.49;100.00;99131.91;5043375;28;20051;-77
2023/04/13 01:16:18;;;;;;;18.58;9.15;;;5.00;99.90;;;5.43;100.00;99125.50;5048018;28;20032;-78
2023/04/13 01:18:51;;;;;;;16.95;8.80;;;5.00;99.90;;;5.42;100.00;99129.25;5045095;28;20164;-77
2023/04/13 01:21:23;;;;;;;19.00;8.65;;;5.00;99.90;;;5.38;100.00;99126.16;5034586;28;20026;-78
2023/04/13 01:24:31;;;;;;;23.85;9.88;;;5.00;99.90;;;5.27;100.00;99110.66;5065206;28;20130;-78
2023/04/13 01:27:15;;;;;;;17.30;9.15;;;5.00;99.90;;;5.61;100.00;99133.69;5037329;28;20029;-78
2023/04/13 01:29:45;;;;;;;19.92;8.52;;;4.90;99.90;;;5.51;100.00;99132.53;5040427;28;20032;-78
2023/04/13 01:32:15;;;;;;;15.13;8.75;;;4.90;99.90;;;5.25;100.00;99118.97;5028427;28;20037;-77
2023/04/13 01:34:41;;;;;;;16.20;8.63;;;4.80;99.90;;;4.95;100.00;99116.06;5066861;28;20048;-78
2023/04/13 01:37:08;;;;;;;16.88;9.55;;;4.80;99.90;;;4.94;100.00;99119.81;5039424;28;20186;-78
2023/04/13 01:39:37;;;;;;;26.55;9.45;;;4.70;99.90;;;4.84;100.00;99114.88;5063713;28;20046;-78
2023/04/13 01:42:14;;;;;;;20.23;9.50;;;4.70;99.90;;;4.82;100.00;99106.97;5083025;28;20092;-77
2023/04/13 01:44:41;;;;;;;17.65;9.57;;;4.70;99.90;;;4.77;100.00;99093.28;5071656;28;20047;-78
2023/04/13 01:47:17;;;;;;;22.35;10.38;;;4.70;99.90;;;4.96;100.00;99110.44;5061074;28;20038;-78
2023/04/13 01:50:12;;;;;;;17.65;9.27;;;4.70;99.90;;;4.90;100.00;99111.31;5049848;28;20036;-78
2023/04/13 01:53:10;;;;;;;20.73;8.52;;;4.70;99.90;;;5.06;100.00;99119.94;5055839;28;20036;-78
2023/04/13 01:55:42;;;;;;;18.63;8.88;;;4.70;99.90;;;4.99;100.00;99110.00;5057579;28;20033;-77
2023/04/13 01:58:12;;;;;;;18.02;9.38;;;4.80;99.90;;;5.08;100.00;99118.66;5072705;28;20036;-77
2023/04/13 02:00:40;;;;;;;16.10;9.60;;;4.80;99.90;;;4.95;100.00;99103.38;5069821;28;20094;-77
2023/04/13 02:03:11;;;;;;;17.00;9.20;;;4.80;99.90;;;5.01;100.00;99113.31;5068288;28;20052;-78
2023/04/13 02:05:39;;;;;;;18.00;9.03;;;4.80;99.90;;;5.00;100.00;99106.25;5063574;28;20524;-77
2023/04/13 02:08:07;;;;;;;17.63;9.93;;;4.80;99.90;;;5.06;100.00;99109.94;5065610;28;20312;-77
2023/04/13 02:10:41;;;;;;;19.38;9.90;;;4.70;99.90;;;5.02;100.00;99101.44;5049626;28;20111;-78
2023/04/13 02:13:11;;;;;;;16.45;8.65;;;4.70;99.90;;;5.07;100.00;99108.91;5047577;28;20060;-77
2023/04/13 02:15:37;;;;;;;20.50;9.32;;;4.70;99.90;;;5.12;100.00;99105.56;5015519;28;20056;-78
2023/04/13 02:18:05;;;;;;;16.00;9.10;;;4.80;99.90;;;5.12;100.00;99097.44;5062156;28;20495;-78
2023/04/13 02:20:41;;;;;;;22.17;9.83;;;4.70;99.90;;;5.21;100.00;99103.41;5063978;28;20033;-78
2023/04/13 02:23:13;;;;;;;15.88;8.48;;;4.80;99.90;;;5.21;100.00;99103.41;5051027;28;20867;-78
2023/04/13 02:25:42;;;;;;;15.00;8.27;;;4.80;99.90;;;5.28;100.00;99110.41;5079325;28;20048;-78
2023/04/13 02:28:10;;;;;;;17.85;9.25;;;4.90;99.90;;;5.27;100.00;99110.66;5064074;28;20502;-78
2023/04/13 02:30:36;;;;;;;16.10;8.47;;;5.00;99.90;;;5.20;100.00;99105.28;5067321;28;20100;-76
2023/04/13 02:33:02;;;;;;;14.93;8.77;;;5.00;99.90;;;5.18;100.00;99091.16;5060394;28;20572;-78
2023/04/13 02:35:29;;;;;;;14.45;7.68;;;5.10;99.90;;;5.15;100.00;99094.31;5044076;28;20033;-77
2023/04/13 02:37:55;;;;;;;15.77;7.93;;;5.10;99.90;;;5.29;100.00;99101.25;5086412;28;20391;-78
2023/04/13 02:40:21;;;;;;;16.35;8.30;;;5.10;99.90;;;5.07;100.00;99083.75;5054998;28;20033;-77
2023/04/13 02:42:47;;;;;;;16.98;8.68;;;5.00;99.90;;;5.13;100.00;99097.22;5040897;28;20136;-78
2023/04/13 02:45:16;;;;;;;14.10;8.82;;;5.00;99.90;;;5.12;100.00;99098.25;5059363;28;20040;-78
2023/04/13 02:47:46;;;;;;;14.73;8.75;;;4.90;99.90;;;5.03;100.00;99100.38;5057828;28;20467;-78
2023/04/13 02:50:12;;;;;;;15.05;8.65;;;4.90;99.90;;;5.03;100.00;99083.38;5050116;28;20033;-78
2023/04/13 02:52:45;;;;;;;15.75;8.40;;;4.90;99.90;;;4.95;100.00;99070.13;5048515;28;20063;-79
2023/04/13 02:55:11;;;;;;;14.82;8.98;;;4.90;99.90;;;5.07;100.00;99087.28;5077239;28;20108;-78
2023/04/13 02:57:53;;;;;;;14.35;8.25;;;4.90;99.90;;;5.24;100.00;99092.97;5068829;28;20042;-78
2023/04/13 03:00:20;;;;;;;15.73;8.13;;;5.00;99.90;;;5.13;100.00;99078.28;5079243;28;20139;-78
2023/04/13 03:03:02;;;;;;;14.50;7.85;;;4.90;99.90;;;5.22;100.00;99092.38;5072760;28;20048;-79
2023/04/13 03:05:32;;;;;;;15.25;7.20;;;4.90;99.90;;;5.27;100.00;99089.00;5035413;28;20511;-77
2023/04/13 03:07:58;;;;;;;13.52;7.82;;;5.00;99.90;;;5.29;100.00;99084.22;5049444;28;20427;-78
2023/04/13 03:10:25;;;;;;;13.32;7.65;;;5.00;99.90;;;5.09;100.00;99078.97;5036529;28;20065;-77
2023/04/13 03:12:52;;;;;;;14.43;7.22;;;5.00;99.90;;;5.17;100.00;99082.22;5049519;28;20033;-79
2023/04/13 03:15:18;;;;;;;11.13;7.10;;;5.10;99.90;;;5.29;100.00;99093.13;5057491;28;20043;-78
2023/04/13 03:17:44;;;;;;;13.80;7.65;;;5.00;99.90;;;5.16;100.00;99085.94;5072297;28;20033;-78
2023/04/13 03:20:19;;;;;;;11.63;6.28;;;5.10;99.90;;;5.27;100.00;99097.94;5061430;28;20133;-79
2023/04/13 03:22:53;;;;;;;10.85;6.28;;;5.00;99.90;;;5.25;100.00;99094.63;5066826;28;20172;-77
2023/04/13 03:25:20;;;;;;;10.75;5.97;;;5.10;99.90;;;5.19;100.00;99098.22;5095176;28;20032;-77
2023/04/13 03:27:46;;;;;;;10.75;5.88;;;5.10;99.90;;;5.22;100.00;99095.06;5064191;28;20032;-77
2023/04/13 03:30:14;;;;;;;11.45;6.03;;;5.10;99.90;;;5.40;100.00;99085.38;5091166;28;20404;-79
2023/04/13 03:32:51;;;;;;;9.68;5.25;;;5.10;99.90;;;5.38;100.00;99085.56;5084863;28;20037;-78
2023/04/13 03:35:17;;;;;;;8.80;5.00;;;5.10;99.90;;;5.30;100.00;99075.88;5072982;28;20033;-79
2023/04/13 03:37:43;;;;;;;10.30;5.47;;;5.10;99.90;;;5.25;100.00;99067.59;5070169;28;20048;-79
2023/04/13 03:40:35;;;;;;;12.48;5.45;;;5.00;99.90;;;5.33;100.00;99088.97;5076946;28;20029;-78
2023/04/13 03:43:01;;;;;;;9.18;5.00;;;5.00;99.90;;;5.30;100.00;99088.56;5076931;28;20056;-78
2023/04/13 03:45:30;;;;;;;9.35;4.93;;;5.00;99.90;;;5.35;100.00;99090.63;5070746;28;20072;-79
2023/04/13 03:47:59;;;;;;;8.18;4.72;;;5.00;99.90;;;5.64;100.00;99072.88;5085418;28;20056;-79
2023/04/13 03:50:27;;;;;;;9.85;4.80;;;5.00;99.90;;;5.66;100.00;99069.94;5065548;28;20462;-80
2023/04/13 03:52:53;;;;;;;9.73;4.93;;;5.10;99.90;;;5.74;100.00;99088.59;5061385;28;20037;-79
2023/04/13 03:55:20;;;;;;;7.43;4.38;;;5.00;99.90;;;5.61;100.00;99084.13;5054919;28;20040;-80
2023/04/13 03:57:48;;;;;;;10.07;4.30;;;5.00;99.90;;;5.40;100.00;99075.38;5060823;28;20039;-80
2023/04/13 04:00:18;;;;;;;7.03;3.85;;;5.00;99.90;;;5.36;100.00;99097.69;5061789;28;20090;-79
2023/04/13 04:02:58;;;;;;;10.48;4.03;;;4.90;99.90;;;5.64;100.00;99104.53;5081435;28;20033;-78
2023/04/13 04:05:38;;;;;;;6.40;3.60;;;4.90;99.90;;;5.68;100.00;99105.72;5073328;28;20034;-79
2023/04/13 04:08:04;;;;;;;6.72;2.97;;;4.90;99.90;;;5.40;100.00;99071.84;5070803;28;20553;-79
2023/04/13 04:10:30;;;;;;;5.60;2.97;;;4.90;99.90;;;5.58;100.00;99098.94;5066888;28;20037;-79
2023/04/13 04:12:57;;;;;;;5.63;2.63;;;5.00;99.90;;;5.62;100.00;99102.03;5058200;28;20067;-78
2023/04/13 04:15:24;;;;;;;5.35;2.50;;;5.00;99.90;;;5.64;100.00;99101.81;5060379;28;20295;-79
2023/04/13 04:17:56;;;;;;;4.47;2.50;;;4.90;99.90;;;5.47;100.00;99078.03;5060504;28;20107;-79
2023/04/13 04:20:23;;;;;;;6.28;2.25;;;4.90;99.90;;;5.53;100.00;99082.53;5057472;28;20041;-81
2023/04/13 04:22:51;;;;;;;3.53;1.80;;;5.00;99.90;;;5.66;100.00;99091.59;5059379;28;20047;-79
2023/04/13 04:25:21;;;;;;;4.78;2.13;;;5.00;99.90;;;5.81;100.00;99102.88;5073387;28;20655;-77
2023/04/13 04:27:51;;;;;;;3.90;1.98;;;5.10;99.90;;;5.79;100.00;99106.88;5071669;28;20075;-78
2023/04/13 04:30:20;;;;;;;4.53;2.10;;;5.00;99.90;;;5.76;100.00;99103.56;5079866;28;20032;-78
2023/04/13 04:32:47;;;;;;;4.15;1.98;;;5.00;99.90;;;5.59;100.00;99114.13;5062511;28;20052;-77
2023/04/13 04:35:24;;;;;;;4.75;2.05;;;5.00;99.90;;;5.73;100.00;99114.00;5075598;28;20033;-78
2023/04/13 04:37:54;;;;;;;6.00;2.15;;;5.00;99.90;;;5.68;100.00;99119.25;5067245;28;20028;-78
2023/04/13 04:40:21;;;;;;;3.80;1.70;;;5.10;99.90;;;5.75;100.00;99120.00;5064607;28;20035;-78
2023/04/13 04:42:48;;;;;;;7.82;2.03;;;5.10;99.90;;;5.94;100.00;99120.88;5043479;28;20037;-81
2023/04/13 04:45:26;;;;;;;3.75;1.73;;;5.20;99.90;;;5.94;100.00;99109.22;5028014;28;20045;-80
2023/04/13 04:47:56;;;;;;;;;;;5.40;99.90;;;6.08;100.00;99118.88;5049846;28;20025;-79
2023/04/13 04:50:24;;;;;;;2.97;1.25;;;5.50;99.90;;;6.00;100.00;99086.66;5053268;28;19967;-78
2023/04/13 04:52:57;;;;;;;3.22;1.60;;;5.60;99.90;;;6.27;100.00;99114.31;5055870;28;20064;-78
2023/04/13 04:55:24;;;;;;;4.32;1.40;;;5.70;99.90;;;6.19;100.00;99112.72;5035578;28;20493;-77
2023/04/13 04:57:50;;;;;;;4.75;1.67;;;5.80;99.90;;;6.38;100.00;99115.44;5068185;28;20174;-78
2023/04/13 05:00:18;;;;;;;3.90;1.45;;;5.90;99.90;;;6.15;100.00;99092.56;5035648;28;20393;-77
2023/04/13 05:03:01;;;;;;;4.70;1.55;;;5.90;99.90;;;6.51;100.00;99125.28;5060367;28;20101;-77
2023/04/13 05:05:31;;;;;;;3.10;1.35;;;6.00;99.90;;;6.66;99.35;99116.75;5073634;28;20038;-81
2023/04/13 05:08:01;;;;;;;7.93;1.88;;;6.10;99.90;;;6.58;98.46;99109.78;5066899;28;20479;-78
2023/04/13 05:10:28;;;;;;;10.10;1.70;;;6.20;99.90;;;6.72;98.09;99131.25;5058364;28;20033;-80
2023/04/13 05:12:56;;;;;;;3.92;1.20;;;6.20;99.90;;;6.69;98.49;99131.72;5064094;28;20035;-81
2023/04/13 05:15:22;;;;;;;5.53;1.40;;;6.20;99.90;;;6.65;97.81;99125.94;5059152;28;20056;-79
2023/04/13 05:17:49;;;;;;;2.05;0.90;;;6.30;99.90;;;6.78;97.66;99118.69;5060228;28;20041;-79
2023/04/13 05:20:16;;;;;;;5.10;0.80;;;6.40;99.90;;;6.75;96.16;99115.38;5045557;28;20440;-78
2023/04/13 05:22:48;;;;;;;5.15;1.30;;;6.60;99.90;;;6.77;95.71;99112.44;5046723;28;20037;-81
2023/04/13 05:25:15;;;;;;;4.10;1.00;;;6.60;99.90;;;6.81;94.98;99116.34;5057455;28;20033;-81
2023/04/13 05:27:42;;;;;;;2.30;1.10;;;6.60;99.90;;;6.83;94.83;99121.53;5050180;28;20436;-79
2023/04/13 05:30:08;;;;;;;4.07;1.00;;;6.60;99.90;;;6.76;94.19;99106.19;5058483;28;20045;-79
2023/04/13 05:32:37;;;;;;;4.03;1.02;;;6.70;99.90;;;7.15;94.09;99124.00;5063257;28;20064;-79
2023/04/13 05:35:03;;;;;;;3.53;1.10;;;6.70;99.90;;;7.22;92.29;99123.91;5021794;28;20030;-80
2023/04/13 05:37:30;;;;;;;3.72;1.15;;;6.70;99.90;;;7.30;91.71;99134.44;5056334;28;20052;-81
2023/04/13 05:39:57;;;;;;;3.42;0.90;;;6.80;99.90;;;7.24;91.79;99116.34;5062837;28;20028;-79
2023/04/13 05:42:29;;;;;;;3.17;0.80;;;6.90;99.90;;;7.47;91.24;99119.13;5051814;28;20037;-79
2023/04/13 05:44:55;;;;;;;2.63;0.95;;;6.90;99.90;;;7.48;91.35;99123.47;5062106;28;20047;-78
2023/04/13 05:47:22;;;;;;;1.20;0.68;;;7.00;99.90;;;7.47;90.06;99127.25;5035204;28;20554;-80
2023/04/13 05:49:51;;;;;;;2.08;0.70;;;7.00;99.90;;;7.50;89.90;99128.69;5078752;28;20126;-79
2023/04/13 05:52:20;;;;;;;4.68;1.10;;;7.00;99.90;;;7.65;90.11;99122.81;5057518;28;20029;-80
2023/04/13 05:54:48;;;;;;;4.60;0.88;;;7.10;99.90;;;7.66;89.92;99132.59;5046559;28;20041;-80
2023/04/13 05:57:19;;;;;;;3.22;0.80;;;7.20;99.90;;;7.60;89.40;99117.25;5068633;28;20110;-79
2023/04/13 05:59:46;;;;;;;4.78;1.00;;;7.20;99.90;;;7.67;88.95;99123.38;5064942;28;20823;-77
2023/04/13 06:02:16;;;;;;;3.08;1.00;;;7.20;99.90;;;7.78;88.97;99116.31;5037499;28;20052;-79
2023/04/13 06:04:42;;;;;;;5.55;1.00;;;7.30;99.90;;;7.99;88.56;99122.22;5055141;28;20044;-78
2023/04/13 06:07:09;;;;;;;3.38;1.30;;;7.40;99.90;;;7.87;86.90;99119.50;5054388;28;20028;-80
2023/04/13 06:09:35;;;;;;;3.58;1.05;;;7.50;99.90;;;7.87;87.99;99111.38;5055634;28;20041;-79
2023/04/13 06:12:01;;;;;;;1.98;0.90;;;7.60;99.90;;;7.91;86.89;99126.94;5060746;28;20025;-79
2023/04/13 06:14:27;;;;;;;5.03;0.85;;;7.70;99.90;;;8.20;85.83;99120.78;5056098;28;20048;-80
2023/04/13 06:16:53;;;;;;;2.85;0.80;;;7.80;99.90;;;8.19;84.57;99114.50;5081573;28;20036;-79
2023/04/13 06:19:18;;;;;;;4.45;1.20;;;7.90;99.90;;;8.31;84.66;99130.78;5071506;28;20052;-80
2023/04/13 06:21:44;;;;;;;3.30;1.00;;;7.90;99.90;;;8.21;84.87;99136.00;5059779;28;20041;-79
2023/04/13 06:24:12;;;;;;;;;;;7.80;99.90;;;8.20;84.55;99123.50;5060130;28;20028;-81
2023/04/13 06:26:38;;;;;;;8.88;1.10;;;7.90;99.90;;;8.67;85.34;99136.16;5072647;28;19955;-80
2023/04/13 06:29:04;;;;;;;5.10;1.23;;;8.10;99.90;;;8.72;83.38;99149.06;5069008;28;20032;-79
2023/04/13 06:31:38;;;;;;;3.10;1.00;;;8.30;99.90;;;8.95;82.14;99150.03;5058393;28;20528;-81
2023/04/13 06:34:10;;;;;;;2.30;0.90;;;8.50;99.90;;;8.89;81.31;99135.50;5063697;28;20056;-79
2023/04/13 06:36:39;;;;;;;2.97;1.02;;;8.60;99.90;;;9.23;80.96;99146.47;5059347;28;20125;-79
2023/04/13 06:39:05;;;;;;;;;;;8.70;99.90;;;8.97;79.35;99137.81;5071112;28;20036;-80
2023/04/13 06:41:32;;;;;;;1.50;0.57;;;8.70;99.90;;;8.94;79.14;99135.59;5078214;28;20360;-79
2023/04/13 06:44:13;;;;;;;3.10;0.82;;;8.50;99.90;;;8.92;79.80;99149.47;5068109;28;20132;-79
2023/04/13 06:46:55;;;;;;;1.98;0.85;;;8.40;99.90;;;8.87;78.99;99148.53;5066473;28;20036;-79
2023/04/13 06:49:22;;;;;;;2.00;0.80;;;8.40;99.90;;;9.14;79.93;99142.50;5061488;28;20113;-78
2023/04/13 06:51:50;;;;;;;3.25;0.73;;;8.50;99.90;;;9.04;77.34;99119.47;5065741;28;20071;-79
2023/04/13 06:54:15;;;;;;;6.43;1.02;;;8.60;99.90;;;9.19;77.15;99156.19;5064719;28;20024;-79
2023/04/13 06:56:46;;;;;;;3.40;0.70;;;8.60;99.90;;;9.51;77.30;99161.09;5075961;28;20382;-78
2023/04/13 06:59:11;;;;;;;3.03;0.85;;;8.70;99.90;;;9.39;76.18;99165.78;5068025;28;20104;-79
2023/04/13 07:01:37;;;;;;;2.17;0.70;;;8.80;99.90;;;9.46;76.95;99164.56;5037616;28;20049;-81
2023/04/13 07:04:05;;;;;;;3.65;0.90;;;8.80;99.90;;;9.52;75.45;99168.19;5064307;28;20111;-79
2023/04/13 07:06:32;;;;;;;1.88;0.80;;;9.00;99.90;;;9.44;75.17;99169.44;5048501;28;20396;-78
2023/04/13 07:08:58;;;;;;;3.00;0.80;;;8.90;99.90;;;9.35;74.81;99170.88;5064332;28;20033;-79
2023/04/13 07:11:26;;;;;;;4.07;0.77;;;8.90;99.90;;;9.56;75.89;99171.25;5064188;28;20040;-79
2023/04/13 07:13:51;;;;;;;2.28;0.98;;;9.00;99.90;;;9.83;74.76;99165.16;5049922;28;20067;-79
2023/04/13 07:16:17;;;;;;;1.95;0.60;;;9.20;99.90;;;10.20;73.82;99173.63;5054495;28;20040;-77
2023/04/13 07:18:45;;;;;;;4.32;1.48;;;9.50;99.90;;;10.10;71.50;99178.09;5064983;28;20121;-80
2023/04/13 07:21:10;;;;;;;2.38;0.82;;;9.70;99.90;;;10.24;70.68;99164.94;5063355;28;20079;-78
2023/04/13 07:23:53;;;;;;;2.25;0.65;;;9.80;99.90;;;10.19;69.61;99180.16;5057432;28;20454;-77
2023/04/13 07:26:18;;;;;;;1.90;0.63;;;9.70;99.90;;;10.15;70.27;99202.69;5052908;28;20037;-78
2023/04/13 07:28:44;;;;;;;2.85;0.75;;;9.70;99.90;;;9.98;70.71;99199.97;5054431;28;20093;-79
2023/04/13 07:31:12;;;;;;;1.90;0.60;;;9.60;99.90;;;10.05;70.43;99216.97;5063605;28;20090;-79
2023/04/13 07:33:41;;;;;;;3.17;0.82;;;9.60;99.90;;;10.10;70.40;99208.91;5066671;28;20025;-78
2023/04/13 07:36:08;;;;;;;2.88;0.80;;;9.60;99.90;;;10.41;70.18;99206.66;5053313;28;20096;-78
2023/04/13 07:38:35;;;;;;;3.70;0.60;;;9.80;99.90;;;10.24;69.02;99219.44;5065435;28;20036;-79
2023/04/13 07:41:01;;;;;;;2.63;0.70;;;9.90;99.90;;;10.27;67.67;99202.59;5066384;28;20037;-79
2023/04/13 07:43:31;;;;;;;1.83;0.68;;;9.90;99.90;;;10.39;68.27;99227.88;5047569;28;20041;-78
2023/04/13 07:46:07;;;;;;;2.15;0.70;;;9.90;99.90;;;10.26;68.14;99218.13;5066419;28;20028;-81
2023/04/13 07:48:33;;;;;;;3.35;0.80;;;9.80;99.90;;;10.22;67.09;99223.25;5055413;28;20048;-80
2023/04/13 07:51:05;;;;;;;1.73;0.50;;;9.80;99.90;;;10.29;68.60;99238.59;5059508;28;20033;-79
2023/04/13 07:53:31;;;;;;;2.67;0.70;;;9.80;99.90;;;10.19;66.68;99210.13;5046935;28;20396;-80
2023/04/13 07:55:56;;;;;;;4.20;0.80;;;9.90;99.90;;;10.33;66.93;99235.13;5071807;28;20033;-79
2023/04/13 07:58:23;;;;;;;3.75;0.85;;;9.90;99.90;;;10.60;66.75;99239.06;5063612;28;20046;-78
2023/04/13 08:00:49;;;;;;;2.83;0.65;;;10.00;99.90;;;10.58;65.88;99209.34;5067941;28;20036;-78
2023/04/13 08:03:16;;;;;;;2.30;0.52;;;10.10;99.90;;;10.71;65.10;99238.16;5065950;28;20609;-78
2023/04/13 08:05:46;;;;;;;2.35;0.65;;;10.20;99.90;;;10.82;65.47;99243.72;5069341;28;20499;-79
2023/04/13 08:08:12;;;;;;;2.72;0.68;;;10.30;99.90;;;10.60;65.84;99239.06;5067222;28;20036;-79
2023/04/13 08:10:37;;;;;;;3.28;0.65;;;10.20;99.90;;;10.48;65.90;99256.38;5060746;28;20086;-79
2023/04/13 08:13:05;;;;;;;1.13;0.40;;;10.20;99.90;;;10.39;65.77;99263.31;5059055;28;20041;-78
2023/04/13 08:15:31;;;;;;;5.75;0.80;;;10.10;99.90;;;10.32;65.66;99249.84;5057471;28;20037;-80
2023/04/13 08:17:59;;;;;;;2.20;0.80;;;10.00;99.90;;;10.45;66.08;99262.34;5081789;28;20029;-78
2023/04/13 08:20:25;;;;;;;3.70;0.80;;;10.00;99.90;;;10.35;66.31;99273.06;5064852;28;20113;-77
2023/04/13 08:22:53;;;;;;;1.45;0.40;;;10.00;99.90;;;10.58;67.32;99271.22;5062922;28;20071;-77
2023/04/13 08:25:20;;;;;;;3.08;0.70;;;10.00;99.90;;;10.38;64.82;99271.72;5062949;28;20036;-77
2023/04/13 08:27:46;;;;;;;3.13;0.57;;;10.10;99.90;;;10.57;64.42;99284.06;5062524;28;20032;-80
2023/04/13 08:30:13;;;;;;;3.85;0.80;;;10.10;99.90;;;10.64;65.46;99289.34;5041800;28;20032;-79
2023/04/13 08:32:53;;;;;;;2.80;0.65;;;10.10;99.90;;;10.52;65.53;99286.72;5050633;28;20037;-78
2023/04/13 08:35:19;;;;;;;3.10;0.50;;;10.10;99.90;;;10.85;65.23;99297.78;5083545;28;20029;-78
2023/04/13 08:37:45;;;;;;;4.70;0.90;;;10.30;99.90;;;10.99;65.58;99320.91;5067223;28;20394;-79
2023/04/13 08:40:12;;;;;;;2.45;0.70;;;10.40;99.90;;;10.68;64.01;99292.38;5066071;28;20029;-78
2023/04/13 08:42:40;;;;;;;2.58;0.70;;;10.30;99.90;;;10.81;64.42;99283.84;5063966;28;20360;-79
2023/04/13 08:45:08;;;;;;;2.75;0.95;;;10.30;99.90;;;11.15;63.45;99294.66;5060002;28;20048;-77
2023/04/13 08:47:35;;;;;;;2.13;0.70;;;10.60;99.90;;;11.31;63.04;99301.13;5061018;28;20036;-78
2023/04/13 08:50:02;;;;;;;1.10;0.60;;;10.90;99.90;;;11.24;62.19;99270.47;5062223;28;20040;-76
2023/04/13 08:52:38;;;;;;;3.33;0.93;;;11.00;99.90;;;11.07;62.20;99287.72;5067901;28;20037;-77
2023/04/13 08:55:05;;;;;;;2.25;0.70;;;10.80;99.90;;;10.94;63.69;99299.03;5050589;28;20500;-78
2023/04/13 08:57:35;;;;;;;4.20;0.60;;;10.60;99.90;;;10.50;65.46;99299.78;5055121;28;20151;-77
2023/04/13 09:00:15;;;;;;;4.47;1.35;;;10.30;99.90;;;10.37;68.53;99322.72;5042690;28;20112;-77
2023/04/13 09:02:47;;;;;;;4.03;0.60;;;10.00;99.90;;;10.17;70.59;99329.47;5072104;28;20032;-76
2023/04/13 09:05:15;;;;;;;1.40;0.43;;;9.70;99.90;;;10.04;73.65;99337.94;5045068;28;20070;-76
2023/04/13 09:07:52;;;;;;;2.13;0.93;;;9.60;99.90;;;9.87;78.08;99363.28;5077036;28;20032;-78
2023/04/13 09:10:22;;;;;;;2.22;0.77;;;9.40;99.90;;;9.61;82.49;99376.41;5060408;28;20528;-78
2023/04/13 09:12:51;;;;;;;1.38;0.63;;;9.10;99.90;;;9.39;87.78;99373.47;5045345;28;20372;-80
2023/04/13 09:15:17;;;;;;;3.72;1.00;;;8.80;99.90;;;9.33;90.12;99385.31;5065716;28;20438;-80
2023/04/13 09:18:08;;;;;;;3.53;0.90;;;8.70;99.90;;;9.39;90.29;99386.28;5042789;28;20041;-80
2023/04/13 09:20:36;;;;;;;3.92;1.20;;;8.70;99.90;;;9.30;91.48;99391.25;5067235;28;20055;-78
2023/04/13 09:23:13;;;;;;;2.47;0.88;;;8.60;99.90;;;9.42;92.25;99388.50;5061686;28;20035;-80
2023/04/13 09:25:39;;;;;;;1.92;0.80;;;8.70;99.90;;;9.66;91.55;99383.81;5062812;28;20426;-77
2023/04/13 09:28:07;;;;;;;1.70;0.70;;;8.90;99.90;;;9.58;88.47;99354.25;5068611;28;20086;-79
2023/04/13 09:30:33;;;;;;;2.78;0.70;;;9.10;99.90;;;10.02;88.47;99380.97;5064605;28;20033;-78
2023/04/13 09:33:08;;;;;;;1.70;0.68;;;9.40;99.90;;;10.40;84.51;99384.06;5082189;28;20055;-79
2023/04/13 09:35:35;;;;;;;1.88;0.60;;;9.80;99.90;;;10.50;82.74;99366.03;5056529;28;20165;-79
2023/04/13 09:38:01;;;;;;;1.80;0.50;;;10.10;99.90;;;10.85;79.76;99357.81;5065872;28;20036;-79
2023/04/13 09:40:27;;;;;;;2.70;0.80;;;10.40;99.90;;;11.27;78.54;99378.31;5065206;28;20076;-79
2023/04/13 09:43:04;;;;;;;1.85;0.68;;;10.60;99.90;;;11.52;75.58;99369.66;5060181;28;20067;-80
2023/04/13 09:45:36;;;;;;;4.82;0.70;;;10.90;99.90;;;11.79;74.92;99379.78;5045204;28;20115;-80
2023/04/13 09:48:05;;;;;;;1.15;0.68;;;11.30;99.90;;;11.55;68.60;99373.78;5060721;28;20032;-80
2023/04/13 09:50:33;;;;;;;2.33;0.68;;;11.40;99.90;;;11.37;69.89;99376.53;5064721;28;20041;-77
2023/04/13 09:53:08;;;;;;;;;;;11.30;99.90;;;11.16;70.65;99374.66;5067013;28;20519;-79
2023/04/13 09:55:38;;;;;;;3.00;0.80;;;11.20;99.90;;;11.22;70.97;99370.91;5059075;28;20092;-78
2023/04/13 09:58:13;;;;;;;2.22;0.88;;;11.10;99.90;;;11.34;70.59;99379.78;5060877;28;20040;-78
2023/04/13 10:00:42;;;;;;;2.38;1.25;;;11.10;99.90;;;11.26;68.94;99371.19;5066281;28;20033;-79
2023/04/13 10:03:17;;;;;;;3.15;0.88;;;11.20;99.90;;;11.83;67.97;99389.13;5037467;28;20038;-80
2023/04/13 10:05:43;;;;;;;4.18;1.00;;;11.50;99.90;;;12.73;64.90;99365.94;5083733;28;20082;-79
2023/04/13 10:08:09;;;;;;;2.58;1.10;;;12.80;99.90;;;13.17;60.41;99364.84;5064853;28;20107;-80
2023/04/13 10:10:36;;;;;;;2.05;1.48;;;13.70;99.90;;;13.04;57.35;99357.91;5065847;28;20044;-76
2023/04/13 10:13:15;;;;;;;2.33;0.95;;;13.80;99.50;;;13.36;58.04;99359.72;5062081;28;20499;-80
2023/04/13 10:16:08;;;;;;;3.53;0.98;;;;;;;14.64;55.90;99363.00;5051347;28;20030;-81
2023/04/13 10:18:58;;;;;;;2.63;0.90;;;;;;;15.74;52.50;99352.59;5061129;28;20198;-79
2023/04/13 10:21:32;;;;;;;2.90;0.93;;;13.60;99.90;;;16.59;49.45;99342.41;5062089;28;20029;-79
2023/04/13 10:23:57;;;;;;;2.45;1.00;;;16.90;93.00;;;16.39;47.65;99344.22;5066914;28;20123;-82
2023/04/13 10:26:35;;;;;;;2.42;1.10;;;17.20;90.60;;;16.99;48.03;99347.00;5074264;28;20094;-79
2023/04/13 10:29:02;;;;;;;5.32;0.90;;;16.90;91.20;;;15.76;45.94;99337.44;5061561;28;20123;-78
2023/04/13 10:31:51;;;;;;;2.42;0.80;;;16.40;86.40;;;14.74;48.78;99364.97;5052809;28;20037;-78
2023/04/13 10:34:33;;;;;;;2.13;0.85;;;15.10;90.30;;;16.08;46.49;99349.09;5064012;28;20055;-79
2023/04/13 10:37:02;;;;;;;2.20;0.82;;;15.20;90.00;;;16.27;46.60;99368.50;5061583;28;20063;-81